sensor_id;sensor_type;location;lat;lon;timestamp;P1;durP1;ratioP1;P2;durP2;ratioP2
24521;SDS011;12680;57.804;12.190;2024-02-21T00:00:25;31.42;;;5.07;;
24521;SDS011;12680;57.804;12.190;2024-02-21T00:02:52;38.90;;;5.20;;
24521;SDS011;12680;57.804;12.190;2024-02-21T00:05:21;29.75;;;5.10;;
24521;SDS011;12680;57.804;12.190;2024-02-21T00:07:48;26.40;;;4.70;;
24521;SDS011;12680;57.804;12.190;2024-02-21T00:10:15;29.40;;;5.28;;
24521;SDS011;12680;57.804;12.190;2024-02-21T00:12:41;21.25;;;4.63;;
24521;SDS011;12680;57.804;12.190;2024-02-21T00:15:09;40.83;;;5.50;;
24521;SDS011;12680;57.804;12.190;2024-02-21T00:17:36;30.83;;;4.93;;
24521;SDS011;12680;57.804;12.190;2024-02-21T00:20:03;28.02;;;4.75;;
24521;SDS011;12680;57.804;12.190;2024-02-21T00:22:31;29.40;;;4.22;;
24521;SDS011;12680;57.804;12.190;2024-02-21T00:24:59;28.63;;;4.57;;
24521;SDS011;12680;57.804;12.190;2024-02-21T00:27:26;26.98;;;4.97;;
24521;SDS011;12680;57.804;12.190;2024-02-21T00:29:54;27.90;;;4.97;;
24521;SDS011;12680;57.804;12.190;2024-02-21T00:32:21;21.98;;;4.50;;
24521;SDS011;12680;57.804;12.190;2024-02-21T00:34:48;17.85;;;4.07;;
24521;SDS011;12680;57.804;12.190;2024-02-21T00:37:15;26.48;;;5.47;;
24521;SDS011;12680;57.804;12.190;2024-02-21T00:39:42;20.23;;;4.43;;
24521;SDS011;12680;57.804;12.190;2024-02-21T00:42:09;22.90;;;5.53;;
24521;SDS011;12680;57.804;12.190;2024-02-21T00:44:35;23.63;;;4.85;;
24521;SDS011;12680;57.804;12.190;2024-02-21T00:47:02;20.73;;;5.15;;
24521;SDS011;12680;57.804;12.190;2024-02-21T00:49:30;19.02;;;4.72;;
24521;SDS011;12680;57.804;12.190;2024-02-21T00:51:57;15.52;;;4.25;;
24521;SDS011;12680;57.804;12.190;2024-02-21T00:54:24;21.15;;;3.67;;
24521;SDS011;12680;57.804;12.190;2024-02-21T00:56:57;14.90;;;3.50;;
24521;SDS011;12680;57.804;12.190;2024-02-21T00:59:23;11.95;;;3.42;;
24521;SDS011;12680;57.804;12.190;2024-02-21T01:01:50;13.82;;;3.47;;
24521;SDS011;12680;57.804;12.190;2024-02-21T01:04:17;11.63;;;3.10;;
24521;SDS011;12680;57.804;12.190;2024-02-21T01:06:44;13.30;;;3.15;;
24521;SDS011;12680;57.804;12.190;2024-02-21T01:09:11;9.95;;;3.00;;
24521;SDS011;12680;57.804;12.190;2024-02-21T01:11:37;9.20;;;3.08;;
24521;SDS011;12680;57.804;12.190;2024-02-21T01:14:04;11.68;;;3.47;;
24521;SDS011;12680;57.804;12.190;2024-02-21T01:16:31;10.68;;;2.85;;
24521;SDS011;12680;57.804;12.190;2024-02-21T01:18:58;7.95;;;2.63;;
24521;SDS011;12680;57.804;12.190;2024-02-21T01:21:25;7.75;;;2.88;;
24521;SDS011;12680;57.804;12.190;2024-02-21T01:23:51;6.32;;;2.47;;
24521;SDS011;12680;57.804;12.190;2024-02-21T01:26:18;8.65;;;2.97;;
24521;SDS011;12680;57.804;12.190;2024-02-21T01:28:45;10.35;;;2.28;;
24521;SDS011;12680;57.804;12.190;2024-02-21T01:31:12;8.93;;;2.72;;
24521;SDS011;12680;57.804;12.190;2024-02-21T01:33:39;8.07;;;3.10;;
24521;SDS011;12680;57.804;12.190;2024-02-21T01:36:06;8.32;;;2.42;;
24521;SDS011;12680;57.804;12.190;2024-02-21T01:38:34;7.03;;;2.72;;
24521;SDS011;12680;57.804;12.190;2024-02-21T01:41:00;7.32;;;2.47;;
24521;SDS011;12680;57.804;12.190;2024-02-21T01:43:27;8.52;;;3.20;;
24521;SDS011;12680;57.804;12.190;2024-02-21T01:45:55;8.20;;;3.20;;
24521;SDS011;12680;57.804;12.190;2024-02-21T01:48:22;8.82;;;2.92;;
24521;SDS011;12680;57.804;12.190;2024-02-21T01:50:50;9.70;;;2.97;;
24521;SDS011;12680;57.804;12.190;2024-02-21T01:53:21;9.93;;;2.63;;
24521;SDS011;12680;57.804;12.190;2024-02-21T01:55:51;14.63;;;2.80;;
24521;SDS011;12680;57.804;12.190;2024-02-21T01:58:19;9.32;;;2.60;;
24521;SDS011;12680;57.804;12.190;2024-02-21T02:00:46;7.43;;;2.78;;
24521;SDS011;12680;57.804;12.190;2024-02-21T02:03:14;7.68;;;2.10;;
24521;SDS011;12680;57.804;12.190;2024-02-21T02:05:47;6.18;;;2.28;;
24521;SDS011;12680;57.804;12.190;2024-02-21T02:08:16;3.08;;;1.75;;
24521;SDS011;12680;57.804;12.190;2024-02-21T02:10:44;7.82;;;2.70;;
24521;SDS011;12680;57.804;12.190;2024-02-21T02:13:12;5.60;;;2.03;;
24521;SDS011;12680;57.804;12.190;2024-02-21T02:15:43;4.65;;;1.67;;
24521;SDS011;12680;57.804;12.190;2024-02-21T02:18:12;4.85;;;2.00;;
24521;SDS011;12680;57.804;12.190;2024-02-21T02:20:39;7.07;;;2.30;;
24521;SDS011;12680;57.804;12.190;2024-02-21T02:23:08;4.18;;;1.80;;
24521;SDS011;12680;57.804;12.190;2024-02-21T02:25:37;6.13;;;1.63;;
24521;SDS011;12680;57.804;12.190;2024-02-21T02:28:07;7.00;;;1.75;;
24521;SDS011;12680;57.804;12.190;2024-02-21T02:30:35;3.30;;;1.92;;
24521;SDS011;12680;57.804;12.190;2024-02-21T02:33:03;4.38;;;1.63;;
24521;SDS011;12680;57.804;12.190;2024-02-21T02:35:31;4.35;;;1.55;;
24521;SDS011;12680;57.804;12.190;2024-02-21T02:37:58;4.68;;;1.45;;
24521;SDS011;12680;57.804;12.190;2024-02-21T02:40:25;2.58;;;1.52;;
24521;SDS011;12680;57.804;12.190;2024-02-21T02:42:51;2.70;;;1.23;;
24521;SDS011;12680;57.804;12.190;2024-02-21T02:45:21;3.10;;;1.35;;
24521;SDS011;12680;57.804;12.190;2024-02-21T02:47:53;5.30;;;1.23;;
24521;SDS011;12680;57.804;12.190;2024-02-21T02:50:29;2.55;;;1.80;;
24521;SDS011;12680;57.804;12.190;2024-02-21T02:52:56;3.75;;;1.27;;
24521;SDS011;12680;57.804;12.190;2024-02-21T02:55:23;4.07;;;1.60;;
24521;SDS011;12680;57.804;12.190;2024-02-21T02:57:50;6.03;;;1.48;;
24521;SDS011;12680;57.804;12.190;2024-02-21T03:00:17;4.10;;;1.33;;
24521;SDS011;12680;57.804;12.190;2024-02-21T03:02:45;2.88;;;1.10;;
24521;SDS011;12680;57.804;12.190;2024-02-21T03:05:18;1.42;;;1.00;;
24521;SDS011;12680;57.804;12.190;2024-02-21T03:07:47;3.67;;;1.40;;
24521;SDS011;12680;57.804;12.190;2024-02-21T03:10:16;2.83;;;1.20;;
24521;SDS011;12680;57.804;12.190;2024-02-21T03:12:44;1.77;;;1.00;;
24521;SDS011;12680;57.804;12.190;2024-02-21T03:15:11;2.47;;;1.20;;
24521;SDS011;12680;57.804;12.190;2024-02-21T03:17:39;2.65;;;1.20;;
24521;SDS011;12680;57.804;12.190;2024-02-21T03:20:07;3.47;;;1.42;;
24521;SDS011;12680;57.804;12.190;2024-02-21T03:22:39;2.92;;;1.08;;
24521;SDS011;12680;57.804;12.190;2024-02-21T03:25:06;1.75;;;1.10;;
24521;SDS011;12680;57.804;12.190;2024-02-21T03:27:34;1.85;;;1.45;;
24521;SDS011;12680;57.804;12.190;2024-02-21T03:30:01;3.42;;;1.35;;
24521;SDS011;12680;57.804;12.190;2024-02-21T03:32:28;0.82;;;0.80;;
24521;SDS011;12680;57.804;12.190;2024-02-21T03:34:55;1.70;;;1.10;;
24521;SDS011;12680;57.804;12.190;2024-02-21T03:37:23;2.70;;;1.10;;
24521;SDS011;12680;57.804;12.190;2024-02-21T03:39:50;2.75;;;1.10;;
24521;SDS011;12680;57.804;12.190;2024-02-21T03:42:17;2.83;;;0.90;;
24521;SDS011;12680;57.804;12.190;2024-02-21T03:44:44;1.48;;;1.00;;
24521;SDS011;12680;57.804;12.190;2024-02-21T03:47:11;3.17;;;1.00;;
24521;SDS011;12680;57.804;12.190;2024-02-21T03:49:38;1.55;;;0.70;;
24521;SDS011;12680;57.804;12.190;2024-02-21T03:52:05;1.30;;;0.90;;
24521;SDS011;12680;57.804;12.190;2024-02-21T03:54:32;0.73;;;0.73;;
24521;SDS011;12680;57.804;12.190;2024-02-21T03:56:59;1.73;;;0.65;;
24521;SDS011;12680;57.804;12.190;2024-02-21T03:59:26;1.00;;;0.70;;
24521;SDS011;12680;57.804;12.190;2024-02-21T04:01:52;2.42;;;1.17;;
24521;SDS011;12680;57.804;12.190;2024-02-21T04:04:20;3.72;;;0.80;;
24521;SDS011;12680;57.804;12.190;2024-02-21T04:06:50;1.80;;;0.70;;
24521;SDS011;12680;57.804;12.190;2024-02-21T04:09:17;1.60;;;0.80;;
24521;SDS011;12680;57.804;12.190;2024-02-21T04:11:44;0.88;;;0.70;;
24521;SDS011;12680;57.804;12.190;2024-02-21T04:14:11;1.90;;;0.80;;
24521;SDS011;12680;57.804;12.190;2024-02-21T04:16:38;0.50;;;0.47;;
24521;SDS011;12680;57.804;12.190;2024-02-21T04:19:06;0.73;;;0.73;;
24521;SDS011;12680;57.804;12.190;2024-02-21T04:21:34;0.80;;;0.60;;
24521;SDS011;12680;57.804;12.190;2024-02-21T04:24:01;1.38;;;0.90;;
24521;SDS011;12680;57.804;12.190;2024-02-21T04:26:29;0.50;;;0.40;;
24521;SDS011;12680;57.804;12.190;2024-02-21T04:28:56;1.65;;;0.60;;
24521;SDS011;12680;57.804;12.190;2024-02-21T04:31:23;0.50;;;0.50;;
24521;SDS011;12680;57.804;12.190;2024-02-21T04:33:51;0.73;;;0.47;;
24521;SDS011;12680;57.804;12.190;2024-02-21T04:36:18;1.52;;;0.52;;
24521;SDS011;12680;57.804;12.190;2024-02-21T04:38:45;0.80;;;0.50;;
24521;SDS011;12680;57.804;12.190;2024-02-21T04:41:12;0.45;;;0.40;;
24521;SDS011;12680;57.804;12.190;2024-02-21T04:43:39;0.65;;;0.35;;
24521;SDS011;12680;57.804;12.190;2024-02-21T04:46:05;0.57;;;0.40;;
24521;SDS011;12680;57.804;12.190;2024-02-21T04:48:32;0.40;;;0.40;;
24521;SDS011;12680;57.804;12.190;2024-02-21T04:50:59;1.27;;;0.50;;
24521;SDS011;12680;57.804;12.190;2024-02-21T04:53:26;0.60;;;0.40;;
24521;SDS011;12680;57.804;12.190;2024-02-21T04:55:53;0.40;;;0.40;;
24521;SDS011;12680;57.804;12.190;2024-02-21T04:58:19;0.50;;;0.50;;
24521;SDS011;12680;57.804;12.190;2024-02-21T05:00:46;0.73;;;0.55;;
24521;SDS011;12680;57.804;12.190;2024-02-21T05:03:13;1.33;;;0.40;;
24521;SDS011;12680;57.804;12.190;2024-02-21T05:05:40;0.70;;;0.60;;
24521;SDS011;12680;57.804;12.190;2024-02-21T05:08:07;1.00;;;0.40;;
24521;SDS011;12680;57.804;12.190;2024-02-21T05:10:35;0.65;;;0.50;;
24521;SDS011;12680;57.804;12.190;2024-02-21T05:13:02;0.52;;;0.50;;
24521;SDS011;12680;57.804;12.190;2024-02-21T05:15:29;0.60;;;0.50;;
24521;SDS011;12680;57.804;12.190;2024-02-21T05:17:56;0.50;;;0.50;;
24521;SDS011;12680;57.804;12.190;2024-02-21T05:20:23;0.57;;;0.50;;
24521;SDS011;12680;57.804;12.190;2024-02-21T05:22:50;1.88;;;0.70;;
24521;SDS011;12680;57.804;12.190;2024-02-21T05:25:16;0.82;;;0.50;;
24521;SDS011;12680;57.804;12.190;2024-02-21T05:27:43;0.80;;;0.80;;
24521;SDS011;12680;57.804;12.190;2024-02-21T05:30:11;0.52;;;0.50;;
24521;SDS011;12680;57.804;12.190;2024-02-21T05:32:38;1.17;;;0.60;;
24521;SDS011;12680;57.804;12.190;2024-02-21T05:35:05;1.23;;;0.70;;
24521;SDS011;12680;57.804;12.190;2024-02-21T05:37:32;0.77;;;0.77;;
24521;SDS011;12680;57.804;12.190;2024-02-21T05:39:59;1.13;;;0.60;;
24521;SDS011;12680;57.804;12.190;2024-02-21T05:42:26;1.20;;;0.80;;
24521;SDS011;12680;57.804;12.190;2024-02-21T05:44:53;1.67;;;0.80;;
24521;SDS011;12680;57.804;12.190;2024-02-21T05:47:19;1.67;;;0.70;;
24521;SDS011;12680;57.804;12.190;2024-02-21T05:49:47;0.73;;;0.70;;
24521;SDS011;12680;57.804;12.190;2024-02-21T05:52:14;0.70;;;0.60;;
24521;SDS011;12680;57.804;12.190;2024-02-21T05:54:41;1.35;;;0.60;;
24521;SDS011;12680;57.804;12.190;2024-02-21T05:57:08;3.35;;;0.80;;
24521;SDS011;12680;57.804;12.190;2024-02-21T05:59:37;1.10;;;0.73;;
24521;SDS011;12680;57.804;12.190;2024-02-21T06:02:06;1.23;;;0.55;;
24521;SDS011;12680;57.804;12.190;2024-02-21T06:04:33;1.73;;;0.85;;
24521;SDS011;12680;57.804;12.190;2024-02-21T06:07:01;1.88;;;0.73;;
24521;SDS011;12680;57.804;12.190;2024-02-21T06:09:28;1.42;;;0.70;;
24521;SDS011;12680;57.804;12.190;2024-02-21T06:11:55;0.77;;;0.63;;
24521;SDS011;12680;57.804;12.190;2024-02-21T06:14:22;0.98;;;0.57;;
24521;SDS011;12680;57.804;12.190;2024-02-21T06:16:48;2.25;;;0.70;;
24521;SDS011;12680;57.804;12.190;2024-02-21T06:19:15;3.58;;;0.90;;
24521;SDS011;12680;57.804;12.190;2024-02-21T06:21:43;2.65;;;0.82;;
24521;SDS011;12680;57.804;12.190;2024-02-21T06:24:10;3.40;;;1.02;;
24521;SDS011;12680;57.804;12.190;2024-02-21T06:26:39;3.28;;;1.17;;
24521;SDS011;12680;57.804;12.190;2024-02-21T06:29:06;3.92;;;1.08;;
24521;SDS011;12680;57.804;12.190;2024-02-21T06:31:34;3.42;;;1.33;;
24521;SDS011;12680;57.804;12.190;2024-02-21T06:34:02;4.10;;;1.23;;
24521;SDS011;12680;57.804;12.190;2024-02-21T06:36:29;2.75;;;1.15;;
24521;SDS011;12680;57.804;12.190;2024-02-21T06:38:56;4.13;;;1.50;;
24521;SDS011;12680;57.804;12.190;2024-02-21T06:41:22;4.95;;;1.50;;
24521;SDS011;12680;57.804;12.190;2024-02-21T06:43:49;6.22;;;2.00;;
24521;SDS011;12680;57.804;12.190;2024-02-21T06:46:26;2.65;;;1.52;;
24521;SDS011;12680;57.804;12.190;2024-02-21T06:48:55;4.78;;;1.23;;
24521;SDS011;12680;57.804;12.190;2024-02-21T06:51:25;3.13;;;1.42;;
24521;SDS011;12680;57.804;12.190;2024-02-21T06:53:55;4.05;;;1.45;;
24521;SDS011;12680;57.804;12.190;2024-02-21T06:56:23;2.90;;;1.45;;
24521;SDS011;12680;57.804;12.190;2024-02-21T06:58:55;2.20;;;0.93;;
24521;SDS011;12680;57.804;12.190;2024-02-21T07:01:25;4.90;;;1.20;;
24521;SDS011;12680;57.804;12.190;2024-02-21T07:03:52;4.03;;;0.82;;
24521;SDS011;12680;57.804;12.190;2024-02-21T07:06:19;1.05;;;0.80;;
24521;SDS011;12680;57.804;12.190;2024-02-21T07:08:46;2.63;;;1.02;;
24521;SDS011;12680;57.804;12.190;2024-02-21T07:11:13;4.38;;;1.00;;
24521;SDS011;12680;57.804;12.190;2024-02-21T07:13:40;1.02;;;0.82;;
24521;SDS011;12680;57.804;12.190;2024-02-21T07:16:07;1.55;;;1.05;;
24521;SDS011;12680;57.804;12.190;2024-02-21T07:18:34;1.08;;;0.80;;
24521;SDS011;12680;57.804;12.190;2024-02-21T07:21:01;1.75;;;1.27;;
24521;SDS011;12680;57.804;12.190;2024-02-21T07:23:28;1.58;;;1.00;;
24521;SDS011;12680;57.804;12.190;2024-02-21T07:25:55;1.85;;;1.23;;
24521;SDS011;12680;57.804;12.190;2024-02-21T07:28:21;2.25;;;1.00;;
24521;SDS011;12680;57.804;12.190;2024-02-21T07:30:48;2.05;;;1.00;;
24521;SDS011;12680;57.804;12.190;2024-02-21T07:33:15;2.22;;;1.00;;
24521;SDS011;12680;57.804;12.190;2024-02-21T07:35:42;2.10;;;1.10;;
24521;SDS011;12680;57.804;12.190;2024-02-21T07:38:12;3.17;;;1.13;;
24521;SDS011;12680;57.804;12.190;2024-02-21T07:40:40;3.40;;;1.40;;
24521;SDS011;12680;57.804;12.190;2024-02-21T07:43:07;1.75;;;1.25;;
24521;SDS011;12680;57.804;12.190;2024-02-21T07:45:34;1.98;;;1.30;;
24521;SDS011;12680;57.804;12.190;2024-02-21T07:48:01;1.17;;;0.90;;
24521;SDS011;12680;57.804;12.190;2024-02-21T07:50:28;4.15;;;1.20;;
24521;SDS011;12680;57.804;12.190;2024-02-21T07:52:55;1.77;;;1.05;;
24521;SDS011;12680;57.804;12.190;2024-02-21T07:55:22;1.90;;;1.00;;
24521;SDS011;12680;57.804;12.190;2024-02-21T07:57:49;2.55;;;1.10;;
24521;SDS011;12680;57.804;12.190;2024-02-21T08:00:16;2.70;;;0.93;;
24521;SDS011;12680;57.804;12.190;2024-02-21T08:02:50;0.77;;;0.77;;
24521;SDS011;12680;57.804;12.190;2024-02-21T08:05:17;0.70;;;0.70;;
24521;SDS011;12680;57.804;12.190;2024-02-21T08:07:44;1.75;;;0.73;;
24521;SDS011;12680;57.804;12.190;2024-02-21T08:10:11;1.83;;;0.80;;
24521;SDS011;12680;57.804;12.190;2024-02-21T08:12:38;1.27;;;0.70;;
24521;SDS011;12680;57.804;12.190;2024-02-21T08:15:05;2.88;;;1.13;;
24521;SDS011;12680;57.804;12.190;2024-02-21T08:17:34;3.33;;;0.80;;
24521;SDS011;12680;57.804;12.190;2024-02-21T08:20:01;2.95;;;0.80;;
24521;SDS011;12680;57.804;12.190;2024-02-21T08:22:29;2.55;;;0.80;;
24521;SDS011;12680;57.804;12.190;2024-02-21T08:24:56;2.28;;;1.40;;
24521;SDS011;12680;57.804;12.190;2024-02-21T08:27:22;3.25;;;1.70;;
24521;SDS011;12680;57.804;12.190;2024-02-21T08:29:49;3.00;;;1.58;;
24521;SDS011;12680;57.804;12.190;2024-02-21T08:32:16;3.28;;;2.08;;
24521;SDS011;12680;57.804;12.190;2024-02-21T08:34:45;2.42;;;1.90;;
24521;SDS011;12680;57.804;12.190;2024-02-21T08:37:11;4.05;;;2.00;;
24521;SDS011;12680;57.804;12.190;2024-02-21T08:39:38;1.90;;;1.50;;
24521;SDS011;12680;57.804;12.190;2024-02-21T08:42:05;2.53;;;1.85;;
24521;SDS011;12680;57.804;12.190;2024-02-21T08:44:32;1.40;;;1.30;;
24521;SDS011;12680;57.804;12.190;2024-02-21T08:46:59;2.08;;;1.38;;
24521;SDS011;12680;57.804;12.190;2024-02-21T08:49:26;2.83;;;1.48;;
24521;SDS011;12680;57.804;12.190;2024-02-21T08:52:00;3.38;;;1.10;;
24521;SDS011;12680;57.804;12.190;2024-02-21T08:54:27;1.40;;;1.17;;
24521;SDS011;12680;57.804;12.190;2024-02-21T08:56:54;3.38;;;1.30;;
24521;SDS011;12680;57.804;12.190;2024-02-21T08:59:21;3.33;;;0.85;;
24521;SDS011;12680;57.804;12.190;2024-02-21T09:01:48;0.57;;;0.57;;
24521;SDS011;12680;57.804;12.190;2024-02-21T09:04:15;0.52;;;0.52;;
24521;SDS011;12680;57.804;12.190;2024-02-21T09:06:42;0.35;;;0.35;;
24521;SDS011;12680;57.804;12.190;2024-02-21T09:09:09;0.43;;;0.40;;
24521;SDS011;12680;57.804;12.190;2024-02-21T09:11:36;0.30;;;0.30;;
24521;SDS011;12680;57.804;12.190;2024-02-21T09:14:03;0.20;;;0.20;;
24521;SDS011;12680;57.804;12.190;2024-02-21T09:16:31;0.15;;;0.15;;
24521;SDS011;12680;57.804;12.190;2024-02-21T09:18:58;0.20;;;0.20;;
24521;SDS011;12680;57.804;12.190;2024-02-21T09:21:26;0.30;;;0.22;;
24521;SDS011;12680;57.804;12.190;2024-02-21T09:23:54;0.20;;;0.20;;
24521;SDS011;12680;57.804;12.190;2024-02-21T09:26:25;0.77;;;0.32;;
24521;SDS011;12680;57.804;12.190;2024-02-21T09:28:52;0.40;;;0.40;;
24521;SDS011;12680;57.804;12.190;2024-02-21T09:31:19;1.65;;;0.40;;
24521;SDS011;12680;57.804;12.190;2024-02-21T09:33:46;0.40;;;0.38;;
24521;SDS011;12680;57.804;12.190;2024-02-21T09:36:13;0.73;;;0.65;;
24521;SDS011;12680;57.804;12.190;2024-02-21T09:38:40;0.28;;;0.20;;
24521;SDS011;12680;57.804;12.190;2024-02-21T09:41:14;0.30;;;0.30;;
24521;SDS011;12680;57.804;12.190;2024-02-21T09:43:51;0.88;;;0.45;;
24521;SDS011;12680;57.804;12.190;2024-02-21T09:46:21;0.40;;;0.40;;
24521;SDS011;12680;57.804;12.190;2024-02-21T09:48:57;0.20;;;0.20;;
24521;SDS011;12680;57.804;12.190;2024-02-21T09:51:27;0.40;;;0.40;;
24521;SDS011;12680;57.804;12.190;2024-02-21T09:53:56;0.52;;;0.50;;
24521;SDS011;12680;57.804;12.190;2024-02-21T09:56:40;0.85;;;0.40;;
24521;SDS011;12680;57.804;12.190;2024-02-21T09:59:07;0.35;;;0.35;;
24521;SDS011;12680;57.804;12.190;2024-02-21T10:01:34;1.27;;;0.60;;
24521;SDS011;12680;57.804;12.190;2024-02-21T10:04:02;1.38;;;0.70;;
24521;SDS011;12680;57.804;12.190;2024-02-21T10:06:31;1.65;;;0.60;;
24521;SDS011;12680;57.804;12.190;2024-02-21T10:08:59;0.57;;;0.57;;
24521;SDS011;12680;57.804;12.190;2024-02-21T10:11:26;0.52;;;0.52;;
24521;SDS011;12680;57.804;12.190;2024-02-21T10:14:11;0.60;;;0.60;;
24521;SDS011;12680;57.804;12.190;2024-02-21T10:16:38;0.70;;;0.70;;
24521;SDS011;12680;57.804;12.190;2024-02-21T10:19:04;0.77;;;0.75;;
24521;SDS011;12680;57.804;12.190;2024-02-21T10:21:31;0.98;;;0.90;;
24521;SDS011;12680;57.804;12.190;2024-02-21T10:23:58;1.00;;;0.77;;
24521;SDS011;12680;57.804;12.190;2024-02-21T10:26:25;1.08;;;0.80;;
24521;SDS011;12680;57.804;12.190;2024-02-21T10:28:52;1.05;;;0.95;;
24521;SDS011;12680;57.804;12.190;2024-02-21T10:31:21;1.10;;;0.85;;
24521;SDS011;12680;57.804;12.190;2024-02-21T10:33:56;1.13;;;1.02;;
24521;SDS011;12680;57.804;12.190;2024-02-21T10:36:25;2.22;;;1.23;;
24521;SDS011;12680;57.804;12.190;2024-02-21T10:38:52;1.17;;;1.08;;
24521;SDS011;12680;57.804;12.190;2024-02-21T10:41:21;1.17;;;1.08;;
24521;SDS011;12680;57.804;12.190;2024-02-21T10:43:50;14.13;;;2.53;;
24521;SDS011;12680;57.804;12.190;2024-02-21T10:46:20;35.58;;;3.00;;
24521;SDS011;12680;57.804;12.190;2024-02-21T10:48:59;34.13;;;2.75;;
24521;SDS011;12680;57.804;12.190;2024-02-21T10:51:33;125.13;;;5.57;;
24521;SDS011;12680;57.804;12.190;2024-02-21T10:54:10;77.88;;;4.45;;
24521;SDS011;12680;57.804;12.190;2024-02-21T10:56:39;27.10;;;2.65;;
24521;SDS011;12680;57.804;12.190;2024-02-21T10:59:07;36.72;;;2.90;;
24521;SDS011;12680;57.804;12.190;2024-02-21T11:01:35;100.90;;;4.80;;
24521;SDS011;12680;57.804;12.190;2024-02-21T11:04:03;149.88;;;6.28;;
24521;SDS011;12680;57.804;12.190;2024-02-21T11:06:32;34.45;;;2.15;;
24521;SDS011;12680;57.804;12.190;2024-02-21T11:09:05;18.00;;;1.80;;
24521;SDS011;12680;57.804;12.190;2024-02-21T11:11:40;1.15;;;0.80;;
24521;SDS011;12680;57.804;12.190;2024-02-21T11:14:19;24.05;;;1.60;;
24521;SDS011;12680;57.804;12.190;2024-02-21T11:16:46;1.15;;;0.85;;
24521;SDS011;12680;57.804;12.190;2024-02-21T11:19:24;2.00;;;0.70;;
24521;SDS011;12680;57.804;12.190;2024-02-21T11:21:53;13.75;;;1.15;;
24521;SDS011;12680;57.804;12.190;2024-02-21T11:24:27;27.33;;;1.90;;
24521;SDS011;12680;57.804;12.190;2024-02-21T11:27:20;104.05;;;4.50;;
24521;SDS011;12680;57.804;12.190;2024-02-21T11:29:57;42.35;;;2.47;;
24521;SDS011;12680;57.804;12.190;2024-02-21T11:32:25;41.03;;;2.42;;
24521;SDS011;12680;57.804;12.190;2024-02-21T11:35:00;14.70;;;1.48;;
24521;SDS011;12680;57.804;12.190;2024-02-21T11:37:34;6.57;;;1.02;;
24521;SDS011;12680;57.804;12.190;2024-02-21T11:40:05;25.15;;;1.40;;
24521;SDS011;12680;57.804;12.190;2024-02-21T11:42:38;19.67;;;1.63;;
24521;SDS011;12680;57.804;12.190;2024-02-21T11:45:06;41.85;;;2.22;;
24521;SDS011;12680;57.804;12.190;2024-02-21T11:47:35;25.02;;;1.67;;
24521;SDS011;12680;57.804;12.190;2024-02-21T11:50:09;7.57;;;1.00;;
24521;SDS011;12680;57.804;12.190;2024-02-21T11:52:37;1.67;;;1.08;;
24521;SDS011;12680;57.804;12.190;2024-02-21T11:55:05;0.82;;;0.80;;
24521;SDS011;12680;57.804;12.190;2024-02-21T11:57:34;1.17;;;0.90;;
24521;SDS011;12680;57.804;12.190;2024-02-21T12:00:25;1.52;;;0.95;;
24521;SDS011;12680;57.804;12.190;2024-02-21T12:02:52;1.42;;;1.13;;
24521;SDS011;12680;57.804;12.190;2024-02-21T12:05:19;2.25;;;1.40;;
24521;SDS011;12680;57.804;12.190;2024-02-21T12:07:46;2.72;;;1.70;;
24521;SDS011;12680;57.804;12.190;2024-02-21T12:10:13;2.63;;;2.08;;
24521;SDS011;12680;57.804;12.190;2024-02-21T12:12:40;4.95;;;2.20;;
24521;SDS011;12680;57.804;12.190;2024-02-21T12:15:07;4.45;;;2.38;;
24521;SDS011;12680;57.804;12.190;2024-02-21T12:17:35;3.67;;;2.35;;
24521;SDS011;12680;57.804;12.190;2024-02-21T12:20:03;2.67;;;2.03;;
24521;SDS011;12680;57.804;12.190;2024-02-21T12:22:32;3.67;;;2.20;;
24521;SDS011;12680;57.804;12.190;2024-02-21T12:24:59;4.60;;;2.50;;
24521;SDS011;12680;57.804;12.190;2024-02-21T12:27:25;3.72;;;2.38;;
24521;SDS011;12680;57.804;12.190;2024-02-21T12:29:52;6.60;;;2.78;;
24521;SDS011;12680;57.804;12.190;2024-02-21T12:32:19;4.97;;;2.50;;
24521;SDS011;12680;57.804;12.190;2024-02-21T12:34:46;4.70;;;2.60;;
24521;SDS011;12680;57.804;12.190;2024-02-21T12:37:21;3.83;;;2.40;;
24521;SDS011;12680;57.804;12.190;2024-02-21T12:39:48;3.47;;;2.25;;
24521;SDS011;12680;57.804;12.190;2024-02-21T12:42:15;3.70;;;2.30;;
24521;SDS011;12680;57.804;12.190;2024-02-21T12:44:43;2.63;;;2.08;;
24521;SDS011;12680;57.804;12.190;2024-02-21T12:47:11;2.97;;;2.35;;
24521;SDS011;12680;57.804;12.190;2024-02-21T12:49:38;3.58;;;2.17;;
24521;SDS011;12680;57.804;12.190;2024-02-21T12:52:11;2.70;;;1.92;;
24521;SDS011;12680;57.804;12.190;2024-02-21T12:54:39;2.95;;;2.17;;
24521;SDS011;12680;57.804;12.190;2024-02-21T12:57:06;6.60;;;2.78;;
24521;SDS011;12680;57.804;12.190;2024-02-21T12:59:33;4.93;;;2.70;;
24521;SDS011;12680;57.804;12.190;2024-02-21T13:02:00;3.85;;;2.53;;
24521;SDS011;12680;57.804;12.190;2024-02-21T13:04:27;5.60;;;2.55;;
24521;SDS011;12680;57.804;12.190;2024-02-21T13:06:54;4.05;;;2.63;;
24521;SDS011;12680;57.804;12.190;2024-02-21T13:09:22;4.80;;;2.83;;
24521;SDS011;12680;57.804;12.190;2024-02-21T13:11:48;3.83;;;2.70;;
24521;SDS011;12680;57.804;12.190;2024-02-21T13:14:17;7.03;;;3.50;;
24521;SDS011;12680;57.804;12.190;2024-02-21T13:16:45;4.07;;;3.17;;
24521;SDS011;12680;57.804;12.190;2024-02-21T13:19:12;5.38;;;3.65;;
24521;SDS011;12680;57.804;12.190;2024-02-21T13:24:10;6.10;;;4.00;;
24521;SDS011;12680;57.804;12.190;2024-02-21T13:26:37;7.15;;;3.85;;
24521;SDS011;12680;57.804;12.190;2024-02-21T13:29:04;7.07;;;4.35;;
24521;SDS011;12680;57.804;12.190;2024-02-21T13:31:31;6.60;;;4.50;;
24521;SDS011;12680;57.804;12.190;2024-02-21T13:33:58;7.35;;;3.53;;
24521;SDS011;12680;57.804;12.190;2024-02-21T13:36:25;6.40;;;4.20;;
24521;SDS011;12680;57.804;12.190;2024-02-21T13:38:52;7.28;;;3.97;;
24521;SDS011;12680;57.804;12.190;2024-02-21T13:41:19;8.45;;;4.03;;
24521;SDS011;12680;57.804;12.190;2024-02-21T13:43:48;7.57;;;3.65;;
24521;SDS011;12680;57.804;12.190;2024-02-21T13:46:15;11.45;;;4.15;;
24521;SDS011;12680;57.804;12.190;2024-02-21T13:48:42;8.05;;;3.95;;
24521;SDS011;12680;57.804;12.190;2024-02-21T13:51:08;6.38;;;3.60;;
24521;SDS011;12680;57.804;12.190;2024-02-21T13:53:35;7.82;;;3.38;;
24521;SDS011;12680;57.804;12.190;2024-02-21T13:56:02;8.55;;;3.33;;
24521;SDS011;12680;57.804;12.190;2024-02-21T13:58:30;5.95;;;3.65;;
24521;SDS011;12680;57.804;12.190;2024-02-21T14:00:56;5.30;;;3.33;;
24521;SDS011;12680;57.804;12.190;2024-02-21T14:03:23;4.32;;;2.90;;
24521;SDS011;12680;57.804;12.190;2024-02-21T14:05:52;6.35;;;2.55;;
24521;SDS011;12680;57.804;12.190;2024-02-21T14:08:19;5.47;;;2.83;;
24521;SDS011;12680;57.804;12.190;2024-02-21T14:10:46;4.85;;;2.78;;
24521;SDS011;12680;57.804;12.190;2024-02-21T14:13:13;4.82;;;2.30;;
24521;SDS011;12680;57.804;12.190;2024-02-21T14:15:42;4.07;;;2.53;;
24521;SDS011;12680;57.804;12.190;2024-02-21T14:18:12;6.60;;;2.40;;
24521;SDS011;12680;57.804;12.190;2024-02-21T14:20:39;4.32;;;2.28;;
24521;SDS011;12680;57.804;12.190;2024-02-21T14:23:06;3.72;;;2.22;;
24521;SDS011;12680;57.804;12.190;2024-02-21T14:25:33;4.05;;;2.70;;
24521;SDS011;12680;57.804;12.190;2024-02-21T14:28:00;5.28;;;2.30;;
24521;SDS011;12680;57.804;12.190;2024-02-21T14:30:27;6.45;;;3.00;;
24521;SDS011;12680;57.804;12.190;2024-02-21T14:32:54;3.70;;;2.95;;
24521;SDS011;12680;57.804;12.190;2024-02-21T14:35:21;5.22;;;2.70;;
24521;SDS011;12680;57.804;12.190;2024-02-21T14:37:48;5.20;;;3.17;;
24521;SDS011;12680;57.804;12.190;2024-02-21T14:40:19;4.85;;;3.22;;